createdAt,value
2022-11-23T00:01:39.216Z,-17.28
2022-11-23T00:04:11.109Z,-17.35
2022-11-23T00:06:39.181Z,-17.41
2022-11-23T00:09:07.764Z,-17.46
2022-11-23T00:11:38.906Z,-17.55
2022-11-23T00:14:07.091Z,-17.58
2022-11-23T00:16:35.211Z,-17.62
2022-11-23T00:19:05.053Z,-17.70
2022-11-23T00:21:34.161Z,-17.74
2022-11-23T00:24:02.231Z,-17.81
2022-11-23T00:26:30.323Z,-17.90
2022-11-23T00:28:58.325Z,-18.02
2022-11-23T00:31:26.459Z,-18.41
2022-11-23T00:33:56.570Z,-18.18
2022-11-23T00:36:26.577Z,-18.24
2022-11-23T00:38:58.575Z,-18.33
2022-11-23T00:41:32.416Z,-18.39
2022-11-23T00:44:00.403Z,-18.47
2022-11-23T00:46:29.464Z,-18.53
2022-11-23T00:48:58.842Z,-18.64
2022-11-23T00:51:32.789Z,-18.65
2022-11-23T00:54:02.311Z,-18.65
2022-11-23T00:56:32.653Z,-18.70
2022-11-23T00:59:02.775Z,-18.76
2022-11-23T01:01:34.708Z,-18.82
2022-11-23T01:04:04.953Z,-18.96
2022-11-23T01:06:35.804Z,-18.89
2022-11-23T01:09:10.068Z,-18.93
2022-11-23T01:11:38.073Z,-19.40
2022-11-23T01:14:07.369Z,-19.04
2022-11-23T01:16:38.911Z,-19.09
2022-11-23T01:19:13.883Z,-19.53
2022-11-23T01:21:42.038Z,-19.15
2022-11-23T01:24:15.263Z,-19.18
2022-11-23T01:26:47.231Z,-19.20
2022-11-23T01:29:15.356Z,-19.20
2022-11-23T01:31:46.719Z,-19.21
2022-11-23T01:34:16.418Z,-19.15
2022-11-23T01:36:45.158Z,-19.13
2022-11-23T01:39:13.939Z,-19.14
2022-11-23T01:41:45.135Z,-19.16
2022-11-23T01:44:32.181Z,-19.17
2022-11-23T01:47:07.128Z,-19.20
2022-11-23T01:49:44.203Z,-19.21
2022-11-23T01:52:20.236Z,-19.29
2022-11-23T01:55:05.341Z,-19.40
2022-11-23T01:57:42.811Z,-19.48
2022-11-23T02:00:11.858Z,-19.58
2022-11-23T02:02:47.154Z,-19.65
2022-11-23T02:05:17.317Z,-19.65
2022-11-23T02:07:46.280Z,-19.67
2022-11-23T02:10:14.375Z,-19.70
2022-11-23T02:12:42.535Z,-19.71
2022-11-23T02:15:10.933Z,-19.71
2022-11-23T02:17:38.597Z,-19.75
2022-11-23T02:20:13.157Z,-19.82
2022-11-23T02:23:05.373Z,-19.88
2022-11-23T02:25:49.262Z,-19.90
2022-11-23T02:28:22.439Z,-19.90
2022-11-23T02:30:53.895Z,-19.96
2022-11-23T02:33:22.416Z,-20.08
2022-11-23T02:35:51.726Z,-20.06
2022-11-23T02:38:21.152Z,-20.06
2022-11-23T02:40:49.688Z,-20.13
2022-11-23T02:43:17.965Z,-20.09
2022-11-23T02:45:58.116Z,-20.10
2022-11-23T02:48:26.949Z,-20.08
2022-11-23T02:50:54.894Z,-20.11
2022-11-23T02:53:23.850Z,-20.15
2022-11-23T02:55:51.826Z,-20.18
2022-11-23T02:58:19.829Z,-20.57
2022-11-23T03:00:47.996Z,-20.36
2022-11-23T03:03:16.088Z,-20.36
2022-11-23T03:05:44.050Z,-20.68
2022-11-23T03:08:12.234Z,-20.41
2022-11-23T03:10:40.155Z,-20.47
2022-11-23T03:13:08.169Z,-20.40
2022-11-23T03:15:37.224Z,-20.38
2022-11-23T03:18:05.234Z,-20.33
2022-11-23T03:20:33.504Z,-20.38
2022-11-23T03:23:01.651Z,-20.28
2022-11-23T03:25:29.939Z,-20.14
2022-11-23T03:27:58.003Z,-20.15
2022-11-23T03:30:27.215Z,-20.13
2022-11-23T03:32:55.299Z,-20.10
2022-11-23T03:35:23.430Z,-20.10
2022-11-23T03:37:53.071Z,-20.07
2022-11-23T03:40:21.097Z,-20.11
2022-11-23T03:42:49.074Z,-20.11
2022-11-23T03:45:18.327Z,-20.11
2022-11-23T03:47:46.327Z,-20.06
2022-11-23T03:50:14.326Z,-20.03
2022-11-23T03:52:42.381Z,-20.05
2022-11-23T03:55:10.885Z,-20.02
2022-11-23T03:57:38.897Z,-20.02
2022-11-23T04:00:07.866Z,-20.05
2022-11-23T04:02:36.239Z,-20.10
2022-11-23T04:05:04.039Z,-20.10
2022-11-23T04:07:32.229Z,-20.11
2022-11-23T04:10:00.411Z,-20.27
2022-11-23T04:12:28.479Z,-20.19
2022-11-23T04:14:57.550Z,-20.19
2022-11-23T04:17:25.569Z,-20.22
2022-11-23T04:19:55.343Z,-20.26
2022-11-23T04:22:23.469Z,-20.21
2022-11-23T04:24:51.450Z,-20.26
2022-11-23T04:27:19.515Z,-20.25
2022-11-23T04:29:47.727Z,-20.69
2022-11-23T04:32:15.746Z,-20.43
2022-11-23T04:34:43.704Z,-20.33
2022-11-23T04:37:13.879Z,-20.37
2022-11-23T04:39:41.941Z,-20.35
2022-11-23T04:42:13.923Z,-20.37
2022-11-23T04:44:42.068Z,-20.36
2022-11-23T04:47:11.875Z,-20.35
2022-11-23T04:49:39.958Z,-20.34
2022-11-23T04:52:10.993Z,-20.37
2022-11-23T04:54:39.009Z,-20.35
2022-11-23T04:57:07.161Z,-20.32
2022-11-23T04:59:37.235Z,-20.37
2022-11-23T05:02:05.270Z,-20.31
2022-11-23T05:04:35.266Z,-20.21
2022-11-23T05:07:03.505Z,-20.21
2022-11-23T05:09:31.676Z,-20.16
2022-11-23T05:11:59.750Z,-20.10
2022-11-23T05:14:27.895Z,-20.07
2022-11-23T05:16:55.956Z,-20.03
2022-11-23T05:19:25.528Z,-20.43
2022-11-23T05:21:53.892Z,-20.05
2022-11-23T05:24:21.849Z,-20.11
2022-11-23T05:26:54.798Z,-20.08
2022-11-23T05:29:25.956Z,-20.06
2022-11-23T05:31:54.848Z,-20.03
2022-11-23T05:35:03.203Z,-20.07
2022-11-23T08:35:07.516Z,-21.93
2022-11-23T08:37:35.737Z,-21.94
2022-11-23T08:40:03.471Z,-21.91
2022-11-23T08:42:31.486Z,-21.90
2022-11-23T08:45:00.707Z,-21.93
2022-11-23T08:47:28.713Z,-21.88
2022-11-23T08:49:58.217Z,-21.85
2022-11-23T08:52:26.813Z,-21.82
2022-11-23T08:54:54.867Z,-21.81
2022-11-23T08:57:23.059Z,-21.80
2022-11-23T08:59:51.108Z,-21.82
2022-11-23T09:02:18.799Z,-21.84
2022-11-23T09:04:48.582Z,-21.93
2022-11-23T09:07:16.638Z,-21.86
2022-11-23T09:09:44.273Z,-21.88
2022-11-23T09:12:14.122Z,-21.85
2022-11-23T09:14:42.259Z,-21.85
2022-11-23T09:17:10.249Z,-21.88
2022-11-23T09:19:38.028Z,-21.91
2022-11-23T09:22:06.089Z,-21.93
2022-11-23T09:24:34.353Z,-21.95
2022-11-23T09:27:07.109Z,-21.93
2022-11-23T09:29:35.224Z,-21.93
2022-11-23T09:32:03.622Z,-21.90
2022-11-23T09:34:33.449Z,-21.91
2022-11-23T09:37:01.878Z,-21.94
2022-11-23T09:39:29.672Z,-21.94
2022-11-23T09:42:17.766Z,-22.02
2022-11-23T09:44:52.878Z,-22.03
2022-11-23T09:47:26.425Z,-22.02
2022-11-23T09:50:15.744Z,-22.06
2022-11-23T09:52:47.770Z,-22.05
2022-11-23T09:55:28.794Z,-22.17
2022-11-23T09:58:03.306Z,-22.13
2022-11-23T10:00:39.926Z,-22.16
2022-11-23T10:03:12.838Z,-22.18
2022-11-23T10:05:40.995Z,-22.22
2022-11-23T10:08:27.156Z,-22.29
2022-11-23T10:11:27.745Z,-22.26
2022-11-23T10:13:55.910Z,-22.28
2022-11-23T10:16:55.048Z,-22.30
2022-11-23T10:19:41.731Z,-22.32
2022-11-23T10:22:32.370Z,-22.33
2022-11-23T10:25:11.076Z,-22.44
2022-11-23T10:27:39.276Z,-22.35
2022-11-23T10:30:16.374Z,-22.36
2022-11-23T10:33:22.884Z,-22.42
2022-11-23T10:35:50.896Z,-22.49
2022-11-23T10:38:21.555Z,-22.59
2022-11-23T10:41:15.260Z,-22.54
2022-11-23T10:44:00.090Z,-22.55
2022-11-23T10:46:39.037Z,-22.57
2022-11-23T10:49:21.989Z,-22.63
2022-11-23T10:51:57.097Z,-22.65
2022-11-23T10:54:36.362Z,-22.72
2022-11-23T10:57:37.208Z,-22.76
2022-11-23T11:00:17.421Z,-22.80
2022-11-23T11:02:55.246Z,-22.84
2022-11-23T11:08:33.233Z,-22.87
2022-11-23T11:11:22.275Z,-22.93
2022-11-23T11:13:50.452Z,-22.93
2022-11-23T11:16:34.655Z,-22.95
2022-11-23T11:19:23.738Z,-22.96
2022-11-23T11:21:51.668Z,-22.98
2022-11-23T11:24:24.697Z,-23.01
2022-11-23T11:27:04.089Z,-23.02
2022-11-23T11:29:41.166Z,-23.01
2022-11-23T11:32:19.917Z,-23.04
2022-11-23T11:35:03.122Z,-23.07
2022-11-23T11:37:50.587Z,-23.07
2022-11-23T11:40:33.334Z,-23.09
2022-11-23T11:43:18.091Z,-23.10
2022-11-23T11:46:21.249Z,-23.10
2022-11-23T11:48:39.700Z,-23.12
2022-11-23T11:51:14.410Z,-23.16
2022-11-23T11:53:54.824Z,-23.16
2022-11-23T11:56:43.074Z,-23.17
2022-11-23T11:59:26.936Z,-23.20
2022-11-23T12:02:30.851Z,-23.23
2022-11-23T12:05:31.099Z,-23.21
2022-11-23T12:08:05.839Z,-23.21
2022-11-23T12:10:50.890Z,-23.24
2022-11-23T12:13:24.595Z,-23.27
2022-11-23T12:16:05.690Z,-23.31
2022-11-23T12:18:51.263Z,-23.32
2022-11-23T12:22:01.303Z,-23.36
2022-11-23T12:24:32.341Z,-23.40
2022-11-23T12:27:09.520Z,-23.44
2022-11-23T12:30:03.029Z,-23.44
2022-11-23T12:33:07.173Z,-23.41
2022-11-23T12:35:55.954Z,-23.51
2022-11-23T12:38:54.237Z,-23.44
2022-11-23T12:41:31.375Z,-23.46
2022-11-23T12:44:06.390Z,-23.46
2022-11-23T12:46:56.461Z,-23.49
2022-11-23T12:49:54.145Z,-23.50
2022-11-23T12:52:37.358Z,-23.55
2022-11-23T12:55:20.309Z,-23.59
2022-11-23T12:58:06.077Z,-23.57
2022-11-23T13:00:47.375Z,-23.58
2022-11-23T13:03:18.138Z,-23.63
2022-11-23T13:06:02.391Z,-24.07
2022-11-23T13:08:57.716Z,-23.64
2022-11-23T13:12:04.673Z,-23.72
2022-11-23T13:14:47.399Z,-23.84
2022-11-23T13:17:47.154Z,-23.75
2022-11-23T13:20:36.917Z,-23.79
2022-11-23T13:23:07.684Z,-24.23
2022-11-23T13:25:35.718Z,-23.84
2022-11-23T13:28:32.736Z,-23.89
2022-11-23T13:31:32.074Z,-23.92
2022-11-23T13:34:03.407Z,-23.94
2022-11-23T13:37:04.261Z,-23.94
2022-11-23T13:39:44.178Z,-23.94
2022-11-23T13:42:12.729Z,-24.05
2022-11-23T13:44:41.048Z,-23.95
2022-11-23T13:47:18.122Z,-23.98
2022-11-23T13:49:51.710Z,-24.02
2022-11-23T13:52:22.863Z,-24.09
2022-11-23T13:55:37.153Z,-24.17
2022-11-23T13:58:23.899Z,-24.24
2022-11-23T14:00:54.409Z,-24.30
2022-11-23T14:03:44.677Z,-24.35
2022-11-23T14:06:24.550Z,-24.36
2022-11-23T14:09:09.779Z,-24.39
2022-11-23T14:11:52.760Z,-24.45
2022-11-23T14:14:25.872Z,-24.50
2022-11-23T14:17:09.621Z,-24.50
2022-11-23T14:19:55.996Z,-24.54
2022-11-23T14:22:45.311Z,-24.55
2022-11-23T14:25:31.065Z,-24.56
2022-11-23T14:28:09.275Z,-24.68
2022-11-23T14:31:03.672Z,-24.65
2022-11-23T14:33:47.596Z,-24.70
2022-11-23T14:36:42.296Z,-24.72
2022-11-23T14:39:30.180Z,-24.74
2022-11-23T14:42:03.842Z,-24.75
2022-11-23T14:44:38.455Z,-24.75
2022-11-23T14:47:10.384Z,-24.74
2022-11-23T14:49:49.937Z,-24.75
2022-11-23T14:52:36.362Z,-24.78
2022-11-23T14:55:09.943Z,-24.81
2022-11-23T14:57:46.625Z,-24.81
2022-11-23T15:00:30.055Z,-24.81
2022-11-23T15:03:49.599Z,-24.84
2022-11-23T15:06:11.943Z,-24.86
2022-11-23T15:09:10.635Z,-24.89
2022-11-23T15:11:39.084Z,-24.92
2022-11-23T15:14:27.814Z,-24.93
2022-11-23T15:16:56.102Z,-24.91
2022-11-23T15:19:29.704Z,-24.93
2022-11-23T15:21:58.714Z,-24.94
2022-11-23T15:24:28.258Z,-25.00
2022-11-23T15:27:11.089Z,-25.04
2022-11-23T15:29:41.788Z,-25.04
2022-11-23T15:32:33.199Z,-25.13
2022-11-23T15:35:07.716Z,-25.13
2022-11-23T15:37:48.801Z,-25.16
